Time;durP1;ratioP1;P1;durP2;ratioP2;P2;SDS_P1;SDS_P2;PMS_P1;PMS_P2;Temp;Humidity;BMP_temperature;BMP_pressure;BME280_temperature;BME280_humidity;BME280_pressure;Samples;Min_cycle;Max_cycle;Signal;HPM_P1;HPM_P2
2022/02/08 00:00:00;;;;;;;25.08;3.72;;;;;;;7.73;100.00;102358.75;5072777;28;20412;-32
2022/02/08 00:02:30;;;;;;;28.13;4.50;;;;;;;7.73;100.00;102360.69;5070824;28;20047;-32
2022/02/08 00:04:58;;;;;;;34.88;5.38;;;;;;;7.74;100.00;102356.84;5073314;28;20051;-34
2022/02/08 00:07:27;;;;;;;27.85;4.50;;;;;;;7.75;100.00;102364.06;5072107;28;20086;-31
2022/02/08 00:09:55;;;;;;;27.75;3.70;;;;;;;7.76;100.00;102360.22;5073005;28;20059;-31
2022/02/08 00:12:26;;;;;;;24.80;4.07;;;;;;;7.76;100.00;102344.38;5071763;28;20052;-32
2022/02/08 00:14:54;;;;;;;23.77;4.28;;;;;;;7.78;100.00;102355.25;5073228;28;20078;-33
2022/02/08 00:17:22;;;;;;;31.15;4.82;;;;;;;7.80;100.00;102347.50;5072758;28;20155;-32
2022/02/08 00:19:50;;;;;;;27.80;4.85;;;;;;;7.81;100.00;102355.59;5072015;28;20071;-32
2022/02/08 00:22:18;;;;;;;24.70;4.03;;;;;;;7.84;100.00;102357.88;5072837;28;20049;-31
2022/02/08 00:24:46;;;;;;;29.00;4.80;;;;;;;7.84;100.00;102357.03;5072748;28;20462;-34
2022/02/08 00:27:14;;;;;;;29.80;4.07;;;;;;;7.82;100.00;102339.75;5072400;28;20064;-31
2022/02/08 00:29:43;;;;;;;24.60;4.40;;;;;;;7.84;100.00;102344.00;5072612;28;20053;-33
2022/02/08 00:32:11;;;;;;;26.98;4.00;;;;;;;7.85;100.00;102342.91;5072768;28;20036;-32
2022/02/08 00:34:39;;;;;;;27.58;4.95;;;;;;;7.86;100.00;102338.19;5070381;28;20520;-32
2022/02/08 00:37:07;;;;;;;28.55;5.03;;;;;;;7.87;100.00;102340.72;5072203;28;20048;-33
2022/02/08 00:39:35;;;;;;;35.65;4.82;;;;;;;7.87;100.00;102329.59;5072506;28;20057;-33
2022/02/08 00:42:06;;;;;;;21.45;4.22;;;;;;;7.91;100.00;102327.19;5070349;28;20053;-32
2022/02/08 00:44:39;;;;;;;29.85;5.22;;;;;;;7.91;100.00;102328.03;5070954;28;20045;-33
2022/02/08 00:47:19;;;;;;;24.33;3.85;;;;;;;7.94;100.00;102333.09;5072293;28;20109;-32
2022/02/08 00:49:47;;;;;;;30.27;4.75;;;;;;;7.94;100.00;102347.00;5071543;28;20117;-31
2022/02/08 00:52:16;;;;;;;27.23;4.32;;;;;;;7.94;100.00;102319.22;5070783;28;20082;-33
2022/02/08 00:54:47;;;;;;;24.27;4.53;;;;;;;7.97;100.00;102333.72;5071491;28;20064;-31
2022/02/08 00:57:16;;;;;;;29.60;3.80;;;;;;;7.98;100.00;102332.63;5070907;28;20974;-31
2022/02/08 00:59:44;;;;;;;24.30;3.40;;;;;;;7.98;100.00;102315.94;5070643;28;20037;-31
2022/02/08 01:02:14;;;;;;;23.83;3.50;;;;;;;7.99;100.00;102324.03;5069582;28;20079;-32
2022/02/08 01:04:48;;;;;;;23.73;3.65;;;;;;;7.98;100.00;102315.94;5071913;28;20131;-31
2022/02/08 01:07:16;;;;;;;26.17;4.15;;;;;;;7.99;100.00;102346.28;5071087;28;20070;-31
2022/02/08 01:09:48;;;;;;;26.95;3.95;;;;;;;8.01;100.00;102340.44;5070957;28;20040;-32
2022/02/08 01:12:16;;;;;;;23.65;3.50;;;;;;;8.02;100.00;102350.47;5071975;28;20048;-33
2022/02/08 01:14:47;;;;;;;25.13;3.80;;;;;;;8.05;100.00;102349.97;5067050;28;20135;-31
2022/02/08 01:17:17;;;;;;;26.42;4.18;;;;;;;8.05;100.00;102348.06;5060249;28;20060;-31
2022/02/08 01:19:50;;;;;;;22.40;3.78;;;;;;;8.07;100.00;102354.22;5069238;28;20080;-32
2022/02/08 01:22:18;;;;;;;25.15;4.10;;;;;;;8.09;100.00;102354.81;5072041;28;20063;-33
2022/02/08 01:24:47;;;;;;;23.45;3.17;;;;;;;8.09;100.00;102354.81;5068958;28;20080;-31
2022/02/08 01:27:17;;;;;;;27.88;4.63;;;;;;;8.10;100.00;102358.44;5071962;28;20048;-31
2022/02/08 01:29:55;;;;;;;24.58;3.85;;;;;;;8.09;100.00;102359.53;5071267;28;20556;-34
2022/02/08 01:32:48;;;;;;;22.23;3.40;;;;;;;8.10;100.00;102369.56;5068981;28;20054;-32
2022/02/08 01:35:30;;;;;;;24.23;3.58;;;;;;;8.09;100.00;102362.31;5070184;28;20132;-32
2022/02/08 01:38:03;;;;;;;26.07;3.87;;;;;;;8.09;100.00;102376.22;5060475;28;20055;-31
2022/02/08 01:40:46;;;;;;;24.50;3.92;;;;;;;8.11;100.00;102371.25;5070977;28;20040;-32
2022/02/08 01:43:41;;;;;;;22.48;3.53;;;;;;;8.11;100.00;102368.47;5061849;28;20072;-31
2022/02/08 01:46:26;;;;;;;22.88;4.28;;;;;;;8.12;100.00;102384.91;5068432;28;20135;-33
2022/02/08 01:49:00;;;;;;;23.38;3.97;;;;;;;8.13;100.00;102378.25;5070026;28;20052;-32
2022/02/08 01:51:28;;;;;;;23.77;3.50;;;;;;;8.14;100.00;102377.16;5058682;28;20044;-35
2022/02/08 01:53:56;;;;;;;22.13;3.03;;;;;;;8.15;100.00;102375.22;5069778;28;20048;-31
2022/02/08 01:56:24;;;;;;;25.65;4.22;;;;;;;8.18;100.00;102380.31;5069544;28;20778;-32
2022/02/08 01:58:52;;;;;;;23.63;4.20;;;;;;;8.18;100.00;102375.59;5070407;28;20501;-31
2022/02/08 02:01:29;;;;;;;29.50;4.18;;;;;;;8.17;100.00;102384.19;5070125;28;20049;-34
2022/02/08 02:03:58;;;;;;;17.48;3.67;;;;;;;8.17;100.00;102382.25;5069781;28;20124;-31
2022/02/08 02:06:41;;;;;;;22.33;3.65;;;;;;;8.17;100.00;102387.81;5068715;28;20067;-31
2022/02/08 02:09:13;;;;;;;;;;;;;;;8.16;100.00;102379.72;5070472;28;20052;-32
2022/02/08 02:11:41;;;;;;;26.65;3.78;;;;;;;8.12;100.00;102376.56;5069747;28;19928;-32
2022/02/08 02:14:09;;;;;;;22.25;3.55;;;;;;;8.15;100.00;102364.97;5070370;28;20048;-32
2022/02/08 02:16:50;;;;;;;17.88;3.33;;;;;;;8.18;100.00;102358.06;5069172;28;20056;-32
2022/02/08 02:19:21;;;;;;;20.50;3.78;;;;;;;8.18;100.00;102361.69;5058082;28;20084;-32
2022/02/08 02:21:49;;;;;;;26.58;3.97;;;;;;;8.20;100.00;102356.69;5071111;28;20086;-33
2022/02/08 02:24:18;;;;;;;28.05;3.92;;;;;;;8.21;100.00;102349.19;5070017;28;20076;-31
2022/02/08 02:26:46;;;;;;;21.63;3.20;;;;;;;8.21;100.00;102341.72;5068404;28;20107;-32
2022/02/08 02:29:19;;;;;;;28.58;3.95;;;;;;;8.22;100.00;102342.56;5069880;28;20139;-31
2022/02/08 02:31:48;;;;;;;24.92;4.20;;;;;;;8.21;100.00;102340.84;5069319;28;20135;-33
2022/02/08 02:34:17;;;;;;;25.25;3.70;;;;;;;8.23;100.00;102338.69;5068933;28;20087;-32
2022/02/08 02:36:46;;;;;;;22.88;4.40;;;;;;;8.20;100.00;102337.22;5069275;28;20045;-32
2022/02/08 02:39:15;;;;;;;22.85;3.88;;;;;;;8.20;100.00;102340.00;5069432;28;20059;-31
2022/02/08 02:41:48;;;;;;;23.95;4.00;;;;;;;8.22;100.00;102337.00;5069827;28;20518;-32
2022/02/08 02:44:19;;;;;;;22.63;3.58;;;;;;;8.20;100.00;102333.59;5069329;28;20049;-33
2022/02/08 02:46:50;;;;;;;23.88;4.07;;;;;;;8.19;100.00;102337.50;5069506;28;20047;-32
2022/02/08 02:49:19;;;;;;;26.80;3.92;;;;;;;8.20;100.00;102328.91;5068545;28;20056;-32
2022/02/08 02:51:47;;;;;;;19.45;3.92;;;;;;;8.18;100.00;102349.72;5070450;28;20053;-31
2022/02/08 02:54:24;;;;;;;24.70;3.60;;;;;;;8.18;100.00;102346.94;5068468;28;20060;-32
2022/02/08 02:57:00;;;;;;;23.10;3.78;;;;;;;8.20;100.00;102358.63;5061012;28;20170;-33
2022/02/08 02:59:34;;;;;;;24.90;4.20;;;;;;;8.19;100.00;102359.75;5071183;28;20146;-32
2022/02/08 03:02:33;;;;;;;24.83;4.95;;;;;;;8.17;100.00;102359.16;5063692;28;20507;-32
2022/02/08 03:05:11;;;;;;;28.60;4.72;;;;;;;8.16;100.00;102365.81;5072861;28;20056;-31
2022/02/08 03:18:45;;;;;;;25.15;3.42;;;;;;;8.17;100.00;102368.34;5072660;28;20189;-31
2022/02/08 03:21:14;;;;;;;32.58;4.40;;;;;;;8.17;100.00;102356.38;5072866;28;20509;-32
2022/02/08 03:23:44;;;;;;;24.10;4.03;;;;;;;8.18;100.00;102364.47;5071444;28;20044;-31
2022/02/08 03:26:13;;;;;;;26.15;4.15;;;;;;;8.16;100.00;102371.38;5072653;28;20056;-32
2022/02/08 03:28:49;;;;;;;27.77;3.80;;;;;;;8.18;100.00;102369.19;5072327;28;20118;-31
2022/02/08 03:31:26;;;;;;;22.63;3.67;;;;;;;8.19;100.00;102366.13;5069637;28;20063;-33
2022/02/08 03:33:57;;;;;;;26.90;4.50;;;;;;;8.20;100.00;102359.47;5072157;28;20139;-32
2022/02/08 03:36:26;;;;;;;25.45;3.97;;;;;;;8.17;100.00;102348.88;5068141;28;20105;-32
2022/02/08 03:39:12;;;;;;;22.52;4.55;;;;;;;8.20;100.00;102353.06;5072439;28;20048;-32
2022/02/08 03:41:48;;;;;;;23.63;4.13;;;;;;;8.21;100.00;102350.03;5070088;28;20078;-32
2022/02/08 03:44:28;;;;;;;26.45;4.13;;;;;;;8.21;100.00;102349.19;5071389;28;20063;-32
2022/02/08 03:46:57;;;;;;;21.85;3.22;;;;;;;8.22;100.00;102348.13;5070334;28;20140;-31
2022/02/08 03:49:25;;;;;;;20.30;3.90;;;;;;;8.22;100.00;102353.69;5072009;28;20049;-32
2022/02/08 03:51:58;;;;;;;22.13;3.30;;;;;;;8.23;100.00;102349.81;5071552;28;20044;-32
2022/02/08 03:54:26;;;;;;;27.02;4.07;;;;;;;8.22;100.00;102350.91;5072073;28;20397;-32
2022/02/08 03:56:55;;;;;;;27.02;4.25;;;;;;;8.22;100.00;102356.47;5071745;28;20071;-31
2022/02/08 03:59:25;;;;;;;25.77;3.83;;;;;;;8.23;100.00;102355.38;5071552;28;20053;-32
2022/02/08 04:02:28;;;;;;;21.65;3.60;;;;;;;8.24;100.00;102352.34;5072097;28;20476;-31
2022/02/08 04:04:59;;;;;;;17.10;3.35;;;;;;;8.24;100.00;102352.34;5072451;28;20055;-32
2022/02/08 04:07:34;;;;;;;20.47;4.10;;;;;;;8.26;100.00;102361.28;5069756;28;20048;-31
2022/02/08 04:10:04;;;;;;;21.05;3.72;;;;;;;8.25;100.00;102358.75;5073159;28;20059;-32
2022/02/08 04:12:40;;;;;;;23.50;4.07;;;;;;;8.27;100.00;102359.34;5071535;28;20562;-32
2022/02/08 04:15:27;;;;;;;18.70;3.75;;;;;;;8.27;100.00;102359.34;5072189;28;20056;-33
2022/02/08 04:18:19;;;;;;;23.88;3.42;;;;;;;8.27;100.00;102356.56;5072522;28;20056;-32
2022/02/08 04:34:47;;;;;;;21.70;3.85;;;;;;;8.31;100.00;102357.75;5071827;28;20048;-32
2022/02/08 04:37:50;;;;;;;18.67;3.00;;;;;;;8.33;100.00;102361.19;5072971;28;20056;-32
2022/02/08 04:46:01;;;;;;;25.05;4.03;;;;;;;8.23;100.00;102358.16;5062138;28;20417;-31
2022/02/08 04:48:45;;;;;;;26.58;3.88;;;;;;;8.17;100.00;102339.69;5071403;28;20109;-34
2022/02/08 04:51:19;;;;;;;20.23;3.25;;;;;;;8.17;100.00;102348.88;5072336;28;20060;-32
2022/02/08 04:53:53;;;;;;;21.92;3.20;;;;;;;8.17;100.00;102350.81;5071428;28;20556;-31
2022/02/08 04:56:32;;;;;;;28.15;3.70;;;;;;;8.15;100.00;102353.00;5071846;28;20048;-34
2022/02/08 04:59:13;;;;;;;25.42;4.00;;;;;;;8.14;100.00;102342.97;5072069;28;20044;-29
2022/02/08 05:01:57;;;;;;;24.83;3.22;;;;;;;8.13;100.00;102363.50;5071628;28;20060;-31
2022/02/08 05:35:33;;;;;;;22.25;3.60;;;;;;;8.10;100.00;102362.06;4997462;28;20530;-32
2022/02/08 05:43:59;;;;;;;23.90;3.67;;;;;;;8.04;100.00;102362.19;5070526;28;20033;-33
2022/02/08 05:46:48;;;;;;;20.42;3.15;;;;;;;8.05;100.00;102377.78;5062610;28;20045;-32
2022/02/08 05:49:24;;;;;;;24.15;3.78;;;;;;;8.04;100.00;102368.59;5071625;28;20381;-32
2022/02/08 05:54:41;;;;;;;21.92;3.10;;;;;;;8.03;100.00;102366.06;5061737;28;20040;-32
2022/02/08 05:57:10;;;;;;;19.25;3.13;;;;;;;8.03;100.00;102360.50;5070483;28;20112;-32
2022/02/08 05:59:38;;;;;;;19.23;3.17;;;;;;;8.02;100.00;102373.56;5070928;28;20051;-33
2022/02/08 06:02:06;;;;;;;22.15;3.30;;;;;;;8.01;100.00;102394.09;5071721;28;20051;-32
2022/02/08 06:04:59;;;;;;;23.48;3.95;;;;;;;8.00;100.00;102374.88;5069005;28;20097;-34
2022/02/08 06:07:30;;;;;;;27.58;3.80;;;;;;;8.04;100.00;102367.75;5069721;28;20408;-35
2022/02/08 06:10:03;;;;;;;25.35;3.40;;;;;;;8.05;100.00;102378.63;5059982;28;20143;-33
2022/02/08 06:12:31;;;;;;;26.35;3.80;;;;;;;8.06;100.00;102383.09;5070189;28;20044;-31
2022/02/08 06:15:14;;;;;;;19.58;3.40;;;;;;;8.08;100.00;102375.38;5069695;28;20139;-32
2022/02/08 06:17:42;;;;;;;22.02;2.50;;;;;;;8.09;100.00;102377.06;5069139;28;20056;-32
2022/02/08 06:20:11;;;;;;;19.52;3.30;;;;;;;8.12;100.00;102389.63;5069576;28;20555;-32
2022/02/08 06:22:40;;;;;;;24.08;3.35;;;;;;;8.13;100.00;102394.94;5069931;28;20045;-32
2022/02/08 06:25:12;;;;;;;24.08;3.65;;;;;;;8.14;100.00;102388.28;5068638;28;20452;-32
2022/02/08 06:27:41;;;;;;;19.98;3.10;;;;;;;8.17;100.00;102403.66;5060557;28;20044;-31
2022/02/08 06:30:11;;;;;;;19.50;3.97;;;;;;;8.20;100.00;102403.97;5070340;28;20048;-32
2022/02/08 06:32:39;;;;;;;17.35;3.00;;;;;;;8.21;100.00;102404.81;5070605;28;20485;-32
2022/02/08 06:35:12;;;;;;;22.55;3.25;;;;;;;8.21;100.00;102397.31;5074296;28;20049;-32
2022/02/08 06:37:41;;;;;;;20.80;2.85;;;;;;;8.22;100.00;102403.72;5074774;28;20052;-36
2022/02/08 06:40:12;;;;;;;29.75;3.97;;;;;;;8.22;100.00;102398.16;5071905;28;20155;-33
2022/02/08 06:42:42;;;;;;;24.10;3.38;;;;;;;8.19;100.00;102390.34;5071524;28;20059;-32
2022/02/08 06:45:11;;;;;;;22.02;3.22;;;;;;;8.21;100.00;102394.53;5074768;28;20094;-32
2022/02/08 06:47:41;;;;;;;29.38;3.55;;;;;;;8.22;100.00;102389.81;5073887;28;20072;-33
2022/02/08 06:50:11;;;;;;;21.63;3.20;;;;;;;8.20;100.00;102389.22;5074974;28;20556;-33
2022/02/08 06:52:39;;;;;;;18.48;2.50;;;;;;;8.20;100.00;102394.78;5072949;28;20119;-32
2022/02/08 06:55:08;;;;;;;19.02;2.88;;;;;;;8.18;100.00;102395.06;5072018;28;20056;-32
2022/02/08 06:57:49;;;;;;;22.13;3.47;;;;;;;8.16;100.00;102396.38;5072861;28;20362;-34
2022/02/08 07:00:21;;;;;;;29.35;4.00;;;;;;;8.11;100.00;102416.59;5071688;28;20459;-32
2022/02/08 07:02:49;;;;;;;;;;;;;;;8.06;100.00;102418.41;5072537;28;20059;-31
2022/02/08 07:05:17;;;;;;;26.75;4.13;;;;;;;8.05;100.00;102419.47;5071708;28;20023;-34
2022/02/08 07:07:44;;;;;;;29.23;3.95;;;;;;;8.05;100.00;102411.16;5070725;28;20058;-34
2022/02/08 07:10:12;;;;;;;24.67;3.83;;;;;;;8.04;100.00;102406.66;5071144;28;20044;-31
2022/02/08 07:12:42;;;;;;;27.92;4.28;;;;;;;8.03;100.00;102389.16;5069600;28;20048;-32
2022/02/08 07:15:13;;;;;;;23.48;4.35;;;;;;;8.04;100.00;102406.66;5070679;28;20088;-33
2022/02/08 07:17:41;;;;;;;24.35;3.63;;;;;;;8.06;100.00;102410.06;5071339;28;20135;-32
2022/02/08 07:20:11;;;;;;;21.60;3.03;;;;;;;8.05;100.00;102402.81;5072111;28;20603;-31
2022/02/08 07:22:39;;;;;;;27.80;3.72;;;;;;;8.02;100.00;102408.84;5072110;28;20090;-33
2022/02/08 07:25:08;;;;;;;23.90;4.10;;;;;;;8.06;100.00;102410.91;5072521;28;20036;-31
2022/02/08 07:27:36;;;;;;;22.27;2.97;;;;;;;8.07;100.00;102415.38;5061333;28;20044;-31
2022/02/08 07:30:10;;;;;;;27.23;3.63;;;;;;;8.09;100.00;102415.13;5072002;28;20071;-32
2022/02/08 07:32:39;;;;;;;26.48;3.78;;;;;;;8.08;100.00;102399.53;5072612;28;20048;-31
2022/02/08 07:35:24;;;;;;;31.02;4.07;;;;;;;8.06;100.00;102385.03;5072297;28;20530;-33
2022/02/08 07:37:57;;;;;;;18.75;2.88;;;;;;;8.07;100.00;102381.16;5071719;28;20052;-32
2022/02/08 07:40:39;;;;;;;24.55;3.25;;;;;;;8.11;100.00;102372.09;5072318;28;20444;-34
2022/02/08 07:43:07;;;;;;;22.13;3.58;;;;;;;8.17;100.00;102381.41;5058925;28;20041;-31
2022/02/08 07:45:57;;;;;;;22.20;3.13;;;;;;;8.17;100.00;102382.25;5070201;28;20135;-31
2022/02/08 07:48:28;;;;;;;18.90;2.63;;;;;;;8.16;100.00;102382.50;5071980;28;20044;-35
2022/02/08 07:50:56;;;;;;;20.13;3.83;;;;;;;8.18;100.00;102388.66;5071742;28;20040;-32
2022/02/08 07:53:27;;;;;;;20.45;3.25;;;;;;;8.20;100.00;102405.91;5072100;28;20163;-32
2022/02/08 07:55:55;;;;;;;23.90;3.67;;;;;;;8.22;100.00;102403.72;5073495;28;20044;-31
2022/02/08 07:58:24;;;;;;;20.92;3.05;;;;;;;8.23;100.00;102397.06;5071756;28;20041;-33
2022/02/08 08:00:57;;;;;;;20.05;2.72;;;;;;;8.27;100.00;102388.00;5073177;28;20491;-31
2022/02/08 08:03:24;;;;;;;20.45;2.97;;;;;;;8.25;100.00;102397.69;5070209;28;20413;-32
2022/02/08 08:05:52;;;;;;;22.20;3.58;;;;;;;8.31;100.00;102399.47;5072743;28;20048;-32
2022/02/08 08:08:20;;;;;;;24.35;3.72;;;;;;;8.33;100.00;102411.25;5072768;28;20053;-32
2022/02/08 08:10:48;;;;;;;27.48;4.18;;;;;;;8.34;100.00;102415.72;5072457;28;20135;-31
2022/02/08 08:13:18;;;;;;;21.45;3.35;;;;;;;8.41;100.00;102419.19;5072574;28;20059;-32
2022/02/08 08:15:50;;;;;;;23.90;3.05;;;;;;;8.48;100.00;102416.25;5069667;28;20451;-30
2022/02/08 08:18:38;;;;;;;20.10;3.05;;;;;;;8.57;100.00;102412.84;5072240;28;20098;-32
2022/02/08 08:21:06;;;;;;;25.25;3.67;;;;;;;8.56;100.00;102419.50;5070964;28;20525;-32
2022/02/08 08:23:34;;;;;;;18.42;3.58;;;;;;;8.68;100.00;102424.19;5072517;28;20045;-31
2022/02/08 08:26:02;;;;;;;23.52;3.63;;;;;;;8.78;100.00;102424.38;5071134;28;20048;-32
2022/02/08 08:28:30;;;;;;;17.75;2.90;;;;;;;8.93;100.00;102421.88;5072520;28;20048;-32
2022/02/08 08:30:57;;;;;;;23.00;3.30;;;;;;;9.04;100.00;102420.97;5072864;28;20532;-33
2022/02/08 08:33:28;;;;;;;22.05;3.30;;;;;;;9.13;100.00;102421.41;5072011;28;20048;-30
2022/02/08 08:36:06;;;;;;;18.67;2.72;;;;;;;9.19;100.00;102432.38;5072975;28;20067;-31
2022/02/08 08:38:35;;;;;;;17.55;3.38;;;;;;;9.24;100.00;102435.25;5072786;28;20473;-30
2022/02/08 08:41:08;;;;;;;20.67;3.17;;;;;;;9.29;100.00;102432.56;5070985;28;20044;-32
2022/02/08 08:43:53;;;;;;;28.50;3.75;;;;;;;9.31;100.00;102433.16;5072571;28;20036;-31
2022/02/08 08:49:26;;;;;;;19.33;3.28;;;;;;;9.30;100.00;102450.97;5072251;28;20564;-32
2022/02/08 08:51:58;;;;;;;16.42;3.20;;;;;;;9.26;100.00;102446.16;5072697;28;20054;-31
2022/02/08 08:54:31;;;;;;;19.88;3.00;;;;;;;9.22;100.00;102442.16;5071426;28;20086;-31
2022/02/08 08:56:59;;;;;;;19.77;3.08;;;;;;;9.20;100.00;102439.63;5069567;28;20054;-31
2022/02/08 08:59:26;;;;;;;20.05;3.28;;;;;;;9.18;100.00;102432.66;5071994;28;20401;-31
2022/02/08 09:01:54;;;;;;;18.10;2.58;;;;;;;9.21;100.00;102430.19;5071223;28;20477;-35
2022/02/08 09:04:29;;;;;;;18.38;3.78;;;;;;;9.31;100.00;102421.16;5072163;28;20060;-33
2022/02/08 09:06:57;;;;;;;19.60;3.63;;;;;;;9.40;100.00;102425.22;5071757;28;20127;-31
2022/02/08 09:09:26;;;;;;;19.13;3.35;;;;;;;9.39;100.00;102417.97;5071728;28;20045;-33
2022/02/08 09:12:10;;;;;;;19.85;3.10;;;;;;;9.39;100.00;102426.34;5071936;28;20060;-32
2022/02/08 09:14:47;;;;;;;19.45;2.97;;;;;;;9.39;100.00;102419.91;5070884;28;20036;-32
2022/02/08 09:17:38;;;;;;;25.40;3.47;;;;;;;9.33;100.00;102427.34;5071455;28;20505;-32
2022/02/08 09:20:33;;;;;;;25.38;4.18;;;;;;;9.24;100.00;102417.69;5071534;28;20489;-32
2022/02/08 09:23:25;;;;;;;16.17;2.80;;;;;;;9.16;100.00;102412.56;5071015;28;20052;-32
2022/02/08 09:26:10;;;;;;;20.23;3.35;;;;;;;9.13;100.00;102425.03;5071478;28;20044;-31
2022/02/08 09:28:50;;;;;;;24.92;3.83;;;;;;;9.05;100.00;102425.44;5060001;28;20044;-33
2022/02/08 09:31:20;;;;;;;22.92;3.65;;;;;;;9.17;100.00;102429.03;5068091;28;20113;-31
2022/02/08 09:33:48;;;;;;;18.05;2.80;;;;;;;9.25;100.00;102430.53;5060743;28;20139;-31
2022/02/08 09:36:24;;;;;;;22.97;3.60;;;;;;;9.28;100.00;102430.03;5069649;28;20311;-34
2022/02/08 09:38:52;;;;;;;25.35;3.53;;;;;;;9.30;100.00;102434.25;5071616;28;20508;-32
2022/02/08 09:41:24;;;;;;;20.05;2.90;;;;;;;9.31;100.00;102429.53;5071301;28;20152;-33
2022/02/08 09:43:52;;;;;;;18.67;3.47;;;;;;;9.38;100.00;102434.94;5069390;28;20404;-31
2022/02/08 09:46:20;;;;;;;18.15;2.97;;;;;;;9.41;100.00;102429.69;5070465;28;20440;-32
2022/02/08 09:48:53;;;;;;;21.35;3.25;;;;;;;9.45;100.00;102430.03;5070620;28;20056;-33
2022/02/08 09:51:25;;;;;;;22.25;3.40;;;;;;;9.44;100.00;102440.31;5070178;28;20082;-33
2022/02/08 09:53:56;;;;;;;27.48;3.13;;;;;;;9.30;100.00;102437.03;5071467;28;20139;-32
2022/02/08 09:56:27;;;;;;;20.35;3.72;;;;;;;9.19;100.00;102445.47;5070570;28;20055;-31
2022/02/08 09:58:54;;;;;;;25.25;3.85;;;;;;;9.26;100.00;102460.91;5070455;28;20045;-32
2022/02/08 10:01:25;;;;;;;20.98;3.40;;;;;;;9.50;100.00;102456.03;5070731;28;20045;-30
2022/02/08 10:03:56;;;;;;;26.98;3.80;;;;;;;9.54;100.00;102459.19;5070119;28;20052;-31
2022/02/08 10:06:27;;;;;;;24.90;3.50;;;;;;;9.52;100.00;102467.78;5071274;28;20450;-33
2022/02/08 10:08:59;;;;;;;22.15;3.83;;;;;;;9.55;100.00;102470.06;5070630;28;20040;-31
2022/02/08 10:11:30;;;;;;;;;;;;;;;9.71;100.00;102467.53;5070536;28;20044;-32
2022/02/08 10:14:04;;;;;;;19.13;3.15;;;;;;;9.90;100.00;102478.16;5070967;28;19920;-30
2022/02/08 10:22:17;;;;;;;24.58;3.72;;;;;;;9.93;100.00;102474.84;5070874;28;20049;-32
2022/02/08 10:24:49;;;;;;;20.77;3.53;;;;;;;9.81;100.00;102478.81;5069566;28;20135;-31
2022/02/08 10:27:29;;;;;;;23.00;3.63;;;;;;;9.71;100.00;102478.69;5069647;28;20481;-31
2022/02/08 10:30:13;;;;;;;20.30;2.97;;;;;;;9.71;100.00;102476.72;5070932;28;20110;-32
2022/02/08 10:38:21;;;;;;;20.15;3.33;;;;;;;9.58;100.00;102475.16;5069111;28;20052;-30
2022/02/08 10:40:50;;;;;;;20.80;3.35;;;;;;;9.57;100.00;102469.81;5070338;28;20056;-30
2022/02/08 10:43:19;;;;;;;20.10;3.65;;;;;;;9.54;100.00;102484.25;5070303;28;20139;-32
2022/02/08 10:45:47;;;;;;;24.92;3.53;;;;;;;9.46;100.00;102481.88;5067078;28;20040;-30
2022/02/08 10:48:22;;;;;;;17.63;3.13;;;;;;;9.52;100.00;102466.94;5070452;28;20055;-31
2022/02/08 10:50:54;;;;;;;23.25;3.72;;;;;;;9.51;100.00;102470.81;5070311;28;20126;-31
2022/02/08 10:53:27;;;;;;;20.15;3.08;;;;;;;9.50;100.00;102480.28;5068876;28;20431;-30
2022/02/08 10:56:01;;;;;;;17.92;2.45;;;;;;;9.52;100.00;102481.72;5067940;28;20068;-30
2022/02/08 10:58:34;;;;;;;18.08;2.53;;;;;;;9.51;100.00;102479.19;5069476;28;20084;-32
2022/02/08 11:01:07;;;;;;;18.88;3.20;;;;;;;9.53;100.00;102474.19;5068669;28;20155;-31
2022/02/08 11:03:44;;;;;;;19.83;3.60;;;;;;;9.51;100.00;102484.75;5069279;28;20052;-31
2022/02/08 11:06:20;;;;;;;22.73;3.40;;;;;;;9.43;100.00;102480.44;5069338;28;20049;-32
2022/02/08 11:09:11;;;;;;;26.85;4.18;;;;;;;9.41;100.00;102476.19;5068679;28;20178;-31
2022/02/08 11:11:56;;;;;;;16.45;2.60;;;;;;;9.40;100.00;102475.34;5066019;28;20083;-31
2022/02/08 11:14:44;;;;;;;19.05;3.35;;;;;;;9.44;100.00;102478.50;5068540;28;20041;-29
2022/02/08 11:20:18;;;;;;;20.95;3.47;;;;;;;9.44;100.00;102472.91;5067684;28;20048;-30
2022/02/08 11:23:23;;;;;;;21.30;2.78;;;;;;;9.47;100.00;102475.19;5073162;28;20044;-30
2022/02/08 11:25:55;;;;;;;21.55;3.75;;;;;;;9.50;100.00;102483.06;5073029;28;20083;-30
2022/02/08 11:28:29;;;;;;;18.38;3.15;;;;;;;9.45;100.00;102477.41;5072008;28;20135;-31
2022/02/08 11:31:09;;;;;;;21.02;3.88;;;;;;;9.46;100.00;102460.44;5073341;28;20040;-31
2022/02/08 11:34:01;;;;;;;20.58;3.75;;;;;;;9.51;100.00;102462.47;5072585;28;20040;-33
2022/02/08 11:39:59;;;;;;;23.70;3.20;;;;;;;9.58;100.00;102463.16;5064336;28;20167;-31
2022/02/08 11:43:06;;;;;;;24.00;3.75;;;;;;;9.61;100.00;102446.75;5071529;28;20044;-31
2022/02/08 11:45:56;;;;;;;23.08;3.38;;;;;;;9.61;100.00;102452.31;5072310;28;20066;-31
2022/02/08 11:54:27;;;;;;;24.40;3.60;;;;;;;9.70;100.00;102444.38;5061728;28;20048;-29
2022/02/08 11:57:42;;;;;;;23.13;3.40;;;;;;;9.94;100.00;102448.66;5071612;28;20040;-30
2022/02/08 12:00:18;;;;;;;21.92;3.38;;;;;;;10.16;100.00;102447.84;5065117;28;20052;-30
2022/02/08 12:03:02;;;;;;;19.50;3.50;;;;;;;10.39;100.00;102452.38;5072684;28;20051;-31
2022/02/08 12:05:42;;;;;;;19.75;2.88;;;;;;;10.39;100.00;102453.22;5071771;28;20424;-30
2022/02/08 12:08:15;;;;;;;20.48;2.83;;;;;;;10.43;100.00;102446.00;5073064;28;20059;-31
2022/02/08 12:10:52;;;;;;;21.63;3.53;;;;;;;10.47;100.00;102463.09;5071556;28;20078;-31
2022/02/08 12:13:51;;;;;;;20.85;3.25;;;;;;;10.47;100.00;102466.72;5071518;28;20054;-32
2022/02/08 12:29:03;;;;;;;25.33;3.90;;;;;;;10.42;100.00;102458.28;5072748;28;20044;-30
2022/02/08 12:31:40;;;;;;;19.65;2.80;;;;;;;10.50;100.00;102460.63;5065120;28;20048;-30
2022/02/08 12:34:28;;;;;;;22.67;3.43;;;;;;;10.44;100.00;102471.97;5072640;28;20410;-31
2022/02/08 12:51:48;;;;;;;23.40;2.90;;;;;;;10.48;100.00;102457.25;5068996;28;20040;-30
2022/02/08 12:54:21;;;;;;;20.40;3.00;;;;;;;10.52;100.00;102458.41;5071504;28;20052;-30
2022/02/08 12:56:59;;;;;;;26.00;3.42;;;;;;;10.57;100.00;102461.28;5072439;28;20044;-30
2022/02/08 12:59:50;;;;;;;21.92;3.72;;;;;;;10.43;100.00;102461.91;5071248;28;20049;-31
2022/02/08 13:02:31;;;;;;;21.05;3.40;;;;;;;10.30;100.00;102449.19;5065543;28;20086;-29
2022/02/08 13:32:14;;;;;;;22.17;3.42;;;;;;;9.85;100.00;102452.97;5071622;28;20051;-31
2022/02/08 14:01:43;;;;;;;30.15;3.92;;;;;;;9.63;100.00;102466.00;5071025;28;20071;-32
2022/02/08 14:07:17;;;;;;;26.73;3.35;;;;;;;9.67;100.00;102469.97;5070803;28;20064;-31
2022/02/08 14:10:13;;;;;;;24.05;3.72;;;;;;;9.62;100.00;102472.66;5070310;28;20090;-31
2022/02/08 14:13:27;;;;;;;25.92;3.95;;;;;;;9.59;100.00;102467.63;5067386;28;20135;-33
2022/02/08 14:16:14;;;;;;;21.52;3.53;;;;;;;9.55;100.00;102470.06;5070188;28;20056;-30
2022/02/08 14:19:02;;;;;;;19.35;3.28;;;;;;;9.48;100.00;102460.19;5070477;28;20103;-31
2022/02/08 14:21:38;;;;;;;27.55;3.50;;;;;;;9.46;100.00;102473.50;5061070;28;20040;-31
2022/02/08 14:24:16;;;;;;;21.95;3.17;;;;;;;9.47;100.00;102464.91;5069817;28;20098;-30
2022/02/08 14:29:42;;;;;;;21.48;3.03;;;;;;;9.52;100.00;102469.72;5070624;28;20047;-30
2022/02/08 14:32:26;;;;;;;23.25;3.58;;;;;;;9.56;100.00;102460.63;5070197;28;20056;-32
2022/02/08 14:35:22;;;;;;;20.60;2.90;;;;;;;9.58;100.00;102460.38;5070407;28;20070;-30
2022/02/08 15:00:22;;;;;;;32.15;4.57;;;;;;;9.33;100.00;102472.75;5070590;28;20057;-32
2022/02/08 15:05:47;;;;;;;22.50;3.33;;;;;;;9.32;100.00;102476.63;5074218;28;20135;-34
2022/02/08 15:08:24;;;;;;;25.33;3.67;;;;;;;9.31;100.00;102476.88;5072890;28;20445;-31
2022/02/08 15:10:54;;;;;;;24.33;3.50;;;;;;;9.31;100.00;102474.09;5074049;28;20362;-34
2022/02/08 15:13:25;;;;;;;25.50;3.15;;;;;;;9.26;100.00;102477.63;5073201;28;20079;-32
2022/02/08 15:16:20;;;;;;;24.38;3.63;;;;;;;9.20;100.00;102466.63;5073741;28;20044;-33
2022/02/08 15:18:48;;;;;;;24.60;3.67;;;;;;;9.14;100.00;102465.72;5074206;28;20488;-30